Time;durP1;ratioP1;P1;durP2;ratioP2;P2;SDS_P1;SDS_P2;PMS_P1;PMS_P2;Temp;Humidity;BMP_temperature;BMP_pressure;BME280_temperature;BME280_humidity;BME280_pressure;Samples;Min_cycle;Max_cycle;Signal;HPM_P1;HPM_P2
2022/02/15 00:01:07;;;;;;;1.03;0.93;;;9.60;99.90;;;;;;5049441;28;20187;-73
2022/02/15 00:03:33;;;;;;;0.90;0.70;;;9.70;99.90;;;;;;5049479;28;20260;-73
2022/02/15 00:05:59;;;;;;;1.10;1.00;;;9.60;99.90;;;;;;5049795;28;20202;-72
2022/02/15 00:08:25;;;;;;;1.80;1.07;;;9.50;99.90;;;;;;5048977;28;20261;-73
2022/02/15 00:10:51;;;;;;;0.97;0.90;;;9.70;99.90;;;;;;5049349;28;20982;-73
2022/02/15 00:13:17;;;;;;;1.60;1.30;;;9.80;99.90;;;;;;5049168;28;21032;-73
2022/02/15 00:15:43;;;;;;;2.93;1.50;;;9.70;99.90;;;;;;5038731;28;20468;-73
2022/02/15 00:18:09;;;;;;;1.63;1.10;;;9.70;99.90;;;;;;5049354;28;21063;-72
2022/02/15 00:20:35;;;;;;;1.07;0.90;;;9.90;99.90;;;;;;5048848;28;20185;-74
2022/02/15 00:23:00;;;;;;;1.00;0.93;;;9.70;99.90;;;;;;5048274;28;20460;-73
2022/02/15 00:25:26;;;;;;;1.80;1.30;;;9.60;99.90;;;;;;5048979;28;20463;-73
2022/02/15 00:27:53;;;;;;;2.33;1.60;;;9.60;99.90;;;;;;5039047;28;20233;-73
2022/02/15 00:30:19;;;;;;;1.27;1.17;;;9.50;99.90;;;;;;5047932;28;20461;-73
2022/02/15 00:32:44;;;;;;;1.40;1.23;;;9.50;99.90;;;;;;5048891;28;20477;-73
2022/02/15 00:35:11;;;;;;;1.43;1.33;;;9.50;99.90;;;;;;5048612;28;20181;-72
2022/02/15 00:37:36;;;;;;;2.80;1.57;;;9.70;99.90;;;;;;5048516;28;20217;-73
2022/02/15 00:40:03;;;;;;;1.47;1.37;;;9.70;99.90;;;;;;5048586;28;20451;-72
2022/02/15 00:42:29;;;;;;;1.97;1.33;;;9.70;99.90;;;;;;5047973;28;20206;-72
2022/02/15 00:44:54;;;;;;;2.20;1.87;;;9.70;99.90;;;;;;5048115;28;20494;-72
2022/02/15 00:47:20;;;;;;;1.57;1.30;;;9.70;99.90;;;;;;5037366;28;20214;-73
2022/02/15 00:49:46;;;;;;;1.70;1.60;;;9.70;99.90;;;;;;5049021;28;20182;-73
2022/02/15 00:52:11;;;;;;;2.20;1.73;;;9.80;99.90;;;;;;5048515;28;20285;-73
2022/02/15 00:54:37;;;;;;;2.20;1.10;;;9.80;99.90;;;;;;5039020;28;20188;-73
2022/02/15 00:57:03;;;;;;;1.10;1.00;;;9.60;99.90;;;;;;5047391;28;20186;-75
2022/02/15 00:59:28;;;;;;;1.47;1.30;;;9.80;99.90;;;;;;5047816;28;20268;-72
2022/02/15 01:01:54;;;;;;;1.57;1.47;;;9.80;99.90;;;;;;5048036;28;20949;-72
2022/02/15 01:04:19;;;;;;;1.57;1.27;;;9.90;99.90;;;;;;5048668;28;20186;-72
2022/02/15 01:06:45;;;;;;;1.50;1.40;;;9.80;99.90;;;;;;5048470;28;20171;-72
2022/02/15 01:09:11;;;;;;;2.03;1.83;;;9.60;99.90;;;;;;5036876;28;20214;-72
2022/02/15 01:11:38;;;;;;;3.90;1.57;;;9.60;99.90;;;;;;5048581;28;20253;-73
2022/02/15 01:14:04;;;;;;;2.10;1.90;;;9.70;99.90;;;;;;5048286;28;20179;-73
2022/02/15 01:16:29;;;;;;;3.30;2.17;;;9.50;99.90;;;;;;5047001;28;20427;-73
2022/02/15 01:18:55;;;;;;;1.87;1.50;;;9.40;99.90;;;;;;5048785;28;20181;-73
2022/02/15 01:21:21;;;;;;;2.00;1.80;;;9.40;99.90;;;;;;5048291;28;20182;-72
2022/02/15 01:23:46;;;;;;;1.53;1.43;;;9.30;99.90;;;;;;5046850;28;20288;-72
2022/02/15 01:26:12;;;;;;;1.60;1.50;;;9.40;99.90;;;;;;5048226;28;20273;-73
2022/02/15 01:28:38;;;;;;;2.17;2.07;;;9.30;99.90;;;;;;5047701;28;20553;-73
2022/02/15 01:31:04;;;;;;;1.57;1.37;;;9.20;99.90;;;;;;5047425;28;20227;-73
2022/02/15 01:33:30;;;;;;;1.80;1.70;;;9.10;99.90;;;;;;5047529;28;20244;-73
2022/02/15 01:35:56;;;;;;;1.70;1.60;;;9.10;99.90;;;;;;5047124;28;20415;-74
2022/02/15 01:38:22;;;;;;;2.23;2.03;;;9.00;99.90;;;;;;5046928;28;20588;-72
2022/02/15 01:40:47;;;;;;;2.30;2.10;;;8.80;99.90;;;;;;5046752;28;20186;-72
2022/02/15 01:43:13;;;;;;;2.00;1.80;;;8.60;99.90;;;;;;5046080;28;20205;-72
2022/02/15 01:45:39;;;;;;;3.30;1.70;;;8.60;99.90;;;;;;5047103;28;20185;-73
2022/02/15 01:48:05;;;;;;;1.83;1.70;;;8.60;99.90;;;;;;5046856;28;20185;-72
2022/02/15 01:50:31;;;;;;;2.47;1.93;;;8.70;99.90;;;;;;5047159;28;20169;-73
2022/02/15 01:52:56;;;;;;;2.00;1.73;;;8.50;99.90;;;;;;5046575;28;20448;-72
2022/02/15 01:55:22;;;;;;;2.03;1.70;;;8.60;99.90;;;;;;5047598;28;20190;-73
2022/02/15 01:57:48;;;;;;;4.60;1.87;;;8.60;99.90;;;;;;5046819;28;20178;-73
2022/02/15 02:00:16;;;;;;;1.53;1.43;;;8.60;99.90;;;;;;5046415;28;20188;-72
2022/02/15 02:02:42;;;;;;;1.97;1.77;;;8.80;99.90;;;;;;5045549;28;20263;-72
2022/02/15 02:07:54;;;;;;;2.70;1.60;;;9.00;99.90;;;;;;5047116;28;20207;-72
2022/02/15 02:10:20;;;;;;;1.97;1.80;;;8.90;99.90;;;;;;5046482;28;20502;-72
2022/02/15 02:12:46;;;;;;;3.17;1.47;;;8.80;99.90;;;;;;5034997;28;20451;-72
2022/02/15 02:15:24;;;;;;;1.50;1.40;;;8.80;99.90;;;;;;5036566;28;20416;-73
2022/02/15 02:17:51;;;;;;;2.30;1.47;;;8.90;99.90;;;;;;5047111;28;20983;-74
2022/02/15 02:20:18;;;;;;;3.50;1.60;;;8.80;99.90;;;;;;5046281;28;20429;-72
2022/02/15 02:22:44;;;;;;;2.13;1.60;;;8.80;99.90;;;;;;5046508;28;20460;-72
2022/02/15 02:25:14;;;;;;;1.80;1.30;;;8.80;99.90;;;;;;5046942;28;20811;-72
2022/02/15 02:27:41;;;;;;;1.60;1.50;;;8.80;99.90;;;;;;5046102;28;20480;-73
2022/02/15 02:30:08;;;;;;;2.00;1.80;;;8.80;99.90;;;;;;5035931;28;22051;-73
2022/02/15 02:32:34;;;;;;;2.80;1.80;;;8.90;99.90;;;;;;5046737;28;20451;-72
2022/02/15 02:35:01;;;;;;;1.23;1.13;;;9.00;99.90;;;;;;5046541;28;20510;-73
2022/02/15 02:37:27;;;;;;;4.93;1.50;;;8.90;99.90;;;;;;5045621;28;20427;-72
2022/02/15 02:39:54;;;;;;;2.30;1.70;;;8.70;99.90;;;;;;5045793;28;20427;-72
2022/02/15 02:42:22;;;;;;;1.93;1.80;;;8.70;99.90;;;;;;5046121;28;20714;-74
2022/02/15 02:44:48;;;;;;;2.20;1.57;;;8.60;99.90;;;;;;5045973;28;20406;-72
2022/02/15 02:47:15;;;;;;;1.60;1.50;;;8.70;99.90;;;;;;5034013;28;20581;-72
2022/02/15 02:49:41;;;;;;;3.60;1.80;;;8.40;99.90;;;;;;5046416;28;20489;-72
2022/02/15 02:52:07;;;;;;;3.73;2.00;;;8.40;99.90;;;;;;5045669;28;20932;-73
2022/02/15 02:54:33;;;;;;;3.40;2.70;;;8.40;99.90;;;;;;5045586;28;20423;-73
2022/02/15 02:57:01;;;;;;;3.67;2.10;;;8.40;99.90;;;;;;5045092;28;20473;-71
2022/02/15 02:59:27;;;;;;;2.00;1.80;;;8.30;99.90;;;;;;5046082;28;20434;-74
2022/02/15 03:01:53;;;;;;;5.73;2.10;;;8.40;99.90;;;;;;5052411;28;20966;-73
2022/02/15 03:04:19;;;;;;;4.70;1.63;;;8.40;99.90;;;;;;5045115;28;20489;-72
2022/02/15 03:06:45;;;;;;;3.33;1.70;;;8.40;99.90;;;;;;5045608;28;20241;-72
2022/02/15 03:09:10;;;;;;;2.30;1.70;;;8.50;99.90;;;;;;5045986;28;20405;-72
2022/02/15 03:11:36;;;;;;;3.10;1.90;;;8.40;99.90;;;;;;5047629;28;20580;-72
2022/02/15 03:14:02;;;;;;;2.10;1.27;;;8.40;99.90;;;;;;5049430;28;20175;-71
2022/02/15 03:16:28;;;;;;;3.00;1.67;;;8.40;99.90;;;;;;5041049;28;20185;-71
2022/02/15 03:18:54;;;;;;;1.80;1.60;;;8.60;99.90;;;;;;5049243;28;21004;-72
2022/02/15 03:21:20;;;;;;;2.03;1.83;;;8.60;99.90;;;;;;5049248;28;20415;-72
2022/02/15 03:23:46;;;;;;;1.77;1.50;;;8.60;99.90;;;;;;5048867;28;20456;-74
2022/02/15 03:26:12;;;;;;;2.37;1.50;;;8.60;99.90;;;;;;5049003;28;20796;-72
2022/02/15 03:28:38;;;;;;;2.83;2.07;;;8.70;99.90;;;;;;5048731;28;20412;-73
2022/02/15 03:31:05;;;;;;;2.03;1.60;;;8.50;99.90;;;;;;5049201;28;20416;-73
2022/02/15 03:33:31;;;;;;;2.90;1.73;;;8.60;99.90;;;;;;5049178;28;20197;-74
2022/02/15 03:35:57;;;;;;;2.03;1.33;;;8.80;99.90;;;;;;5037879;28;20431;-73
2022/02/15 03:38:22;;;;;;;1.40;1.30;;;8.80;99.90;;;;;;5048266;28;20418;-73
2022/02/15 03:43:32;;;;;;;3.00;1.70;;;8.80;99.90;;;;;;5048427;28;20210;-72
2022/02/15 03:45:58;;;;;;;3.53;1.67;;;8.90;99.90;;;;;;5048897;28;20428;-73
2022/02/15 03:48:23;;;;;;;1.83;1.40;;;9.00;99.90;;;;;;5047913;28;20197;-72
2022/02/15 03:50:49;;;;;;;3.20;1.90;;;9.00;99.90;;;;;;5037121;28;20186;-74
2022/02/15 03:53:15;;;;;;;2.10;1.70;;;9.10;99.90;;;;;;5048372;28;20226;-73
2022/02/15 03:55:42;;;;;;;3.77;1.70;;;8.90;99.90;;;;;;5048372;28;20409;-73
2022/02/15 03:58:08;;;;;;;2.50;1.73;;;8.70;99.90;;;;;;5048139;28;20776;-73
2022/02/15 04:00:34;;;;;;;3.30;1.60;;;8.80;99.90;;;;;;5048753;28;20464;-73
2022/02/15 04:03:00;;;;;;;4.40;1.70;;;8.80;99.90;;;;;;5048304;28;21687;-73
2022/02/15 04:05:25;;;;;;;2.70;1.40;;;8.80;99.90;;;;;;5048651;28;20180;-73
2022/02/15 04:07:51;;;;;;;2.83;1.77;;;8.80;99.90;;;;;;5048731;28;20257;-74
2022/02/15 04:10:17;;;;;;;2.33;1.63;;;8.80;99.90;;;;;;5048333;28;20175;-72
2022/02/15 04:12:43;;;;;;;2.77;1.50;;;8.80;99.90;;;;;;5048108;28;20220;-72
2022/02/15 04:15:09;;;;;;;1.57;1.20;;;8.90;99.90;;;;;;5048628;28;20929;-72
2022/02/15 04:17:35;;;;;;;3.20;1.50;;;8.80;99.90;;;;;;5048636;28;20442;-73
2022/02/15 04:20:02;;;;;;;1.70;1.20;;;8.80;99.90;;;;;;5039812;28;20523;-74
2022/02/15 04:22:28;;;;;;;2.03;1.33;;;8.80;99.90;;;;;;5046845;28;20202;-72
2022/02/15 04:24:53;;;;;;;2.60;1.40;;;8.70;99.90;;;;;;5048113;28;20470;-74
2022/02/15 04:27:20;;;;;;;2.23;1.40;;;8.70;99.90;;;;;;5048389;28;20417;-71
2022/02/15 04:29:46;;;;;;;1.87;1.30;;;8.70;99.90;;;;;;5047740;28;20170;-73
2022/02/15 04:32:11;;;;;;;1.40;1.30;;;8.70;99.90;;;;;;5038855;28;20440;-73
2022/02/15 04:34:39;;;;;;;2.00;1.67;;;8.80;99.90;;;;;;5047553;28;20499;-73
2022/02/15 04:37:04;;;;;;;2.13;1.43;;;8.90;99.90;;;;;;5038415;28;21156;-73
2022/02/15 04:39:30;;;;;;;3.53;1.77;;;9.00;99.90;;;;;;5048498;28;20507;-72
2022/02/15 04:41:56;;;;;;;2.10;1.17;;;8.90;99.90;;;;;;5048152;28;20323;-71
2022/02/15 04:44:21;;;;;;;1.93;1.63;;;9.00;99.90;;;;;;5048453;28;20172;-72
2022/02/15 04:46:47;;;;;;;3.00;1.67;;;9.00;99.90;;;;;;5047081;28;20173;-72
2022/02/15 04:49:13;;;;;;;3.50;1.90;;;9.10;99.90;;;;;;5040070;28;20653;-72
2022/02/15 04:51:38;;;;;;;4.40;1.73;;;9.00;99.90;;;;;;5037911;28;20182;-73
2022/02/15 04:54:04;;;;;;;2.13;1.80;;;8.80;99.90;;;;;;5048375;28;20210;-73
2022/02/15 04:56:29;;;;;;;3.10;2.37;;;8.90;99.90;;;;;;5048062;28;20255;-73
2022/02/15 04:58:55;;;;;;;5.73;2.37;;;8.80;99.90;;;;;;5047626;28;20181;-73
2022/02/15 05:01:21;;;;;;;2.97;2.10;;;8.80;99.90;;;;;;5037914;28;20185;-74
2022/02/15 05:03:47;;;;;;;3.10;2.80;;;8.80;99.90;;;;;;5048025;28;20259;-73
2022/02/15 05:06:13;;;;;;;2.70;2.23;;;8.90;99.90;;;;;;5036079;28;20459;-74
2022/02/15 05:08:39;;;;;;;3.37;3.07;;;8.80;99.90;;;;;;5047575;28;20437;-73
2022/02/15 05:11:04;;;;;;;4.47;2.30;;;8.80;99.90;;;;;;5047326;28;20309;-73
2022/02/15 05:13:30;;;;;;;4.03;2.73;;;8.80;99.90;;;;;;5062010;22;20282;-71
2022/02/15 05:15:56;;;;;;;7.60;2.87;;;8.70;99.90;;;;;;5048784;28;20177;-71
2022/02/15 05:18:21;;;;;;;2.93;2.33;;;8.80;99.90;;;;;;5046975;28;20184;-71
2022/02/15 05:20:47;;;;;;;3.27;2.77;;;8.70;99.90;;;;;;5048670;28;20178;-71
2022/02/15 05:23:12;;;;;;;3.47;2.03;;;8.70;99.90;;;;;;5046837;28;20536;-72
2022/02/15 05:25:38;;;;;;;3.50;2.50;;;8.80;99.90;;;;;;5046896;28;20189;-72
2022/02/15 05:28:04;;;;;;;2.13;1.93;;;8.80;99.90;;;;;;5045472;28;20180;-71
2022/02/15 05:30:30;;;;;;;5.33;2.40;;;9.00;99.90;;;;;;5046234;28;20182;-72
2022/02/15 05:32:56;;;;;;;2.30;2.10;;;9.00;99.90;;;;;;5047250;28;20227;-72
2022/02/15 05:35:23;;;;;;;2.77;2.37;;;8.90;99.90;;;;;;5046138;28;20472;-71
2022/02/15 05:37:49;;;;;;;3.10;2.17;;;9.00;99.90;;;;;;5046234;28;20442;-71
2022/02/15 05:40:15;;;;;;;2.40;2.00;;;8.80;99.90;;;;;;5044208;28;20523;-71
2022/02/15 05:42:42;;;;;;;2.40;2.07;;;9.00;99.90;;;;;;5044147;28;20963;-72
2022/02/15 05:45:09;;;;;;;2.40;2.03;;;8.90;99.90;;;;;;5044144;28;20414;-70
2022/02/15 05:47:35;;;;;;;2.20;1.80;;;8.80;99.90;;;;;;5044388;28;20414;-70
2022/02/15 05:52:45;;;;;;;2.83;2.57;;;8.90;99.90;;;;;;5044201;28;20481;-70
2022/02/15 05:55:10;;;;;;;2.83;2.00;;;8.90;99.90;;;;;;5043954;28;20522;-71
2022/02/15 05:57:36;;;;;;;3.03;1.77;;;9.00;99.90;;;;;;5043679;28;20196;-70
2022/02/15 06:00:05;;;;;;;2.67;1.97;;;9.00;99.90;;;;;;5028586;28;20188;-70
2022/02/15 06:02:31;;;;;;;3.30;1.97;;;9.00;99.90;;;;;;5043684;28;20208;-70
2022/02/15 06:04:56;;;;;;;4.73;2.30;;;9.00;99.90;;;;;;5043897;28;20420;-71
2022/02/15 06:07:22;;;;;;;2.00;1.77;;;8.80;99.90;;;;;;5044020;28;20238;-71
2022/02/15 06:09:47;;;;;;;3.60;2.00;;;8.90;99.90;;;;;;5043781;28;20265;-70
2022/02/15 06:12:13;;;;;;;3.90;1.87;;;8.90;99.90;;;;;;5043379;28;20190;-70
2022/02/15 06:14:39;;;;;;;2.40;2.20;;;8.90;99.90;;;;;;5043988;28;20216;-71
2022/02/15 06:17:04;;;;;;;2.80;1.70;;;9.00;99.90;;;;;;5043835;28;20202;-70
2022/02/15 06:19:30;;;;;;;3.03;1.80;;;9.10;99.90;;;;;;5043804;28;20187;-70
2022/02/15 06:21:56;;;;;;;3.30;1.77;;;9.20;99.90;;;;;;5043507;28;20559;-70
2022/02/15 06:24:23;;;;;;;2.37;1.90;;;9.20;99.90;;;;;;5041997;28;20176;-70
2022/02/15 06:26:49;;;;;;;2.80;1.90;;;9.00;99.90;;;;;;5043146;28;20263;-71
2022/02/15 06:29:15;;;;;;;3.60;2.20;;;9.20;99.90;;;;;;5042706;28;20416;-71
2022/02/15 06:31:40;;;;;;;2.00;1.80;;;9.00;99.90;;;;;;5043342;28;20418;-70
2022/02/15 06:34:06;;;;;;;2.93;1.90;;;9.20;99.90;;;;;;5043161;28;20200;-71
2022/02/15 06:36:32;;;;;;;2.30;1.73;;;9.20;99.90;;;;;;5043502;28;20290;-70
2022/02/15 06:38:58;;;;;;;2.27;1.77;;;9.00;99.90;;;;;;5041855;28;20720;-70
2022/02/15 06:41:24;;;;;;;2.90;1.70;;;9.10;99.90;;;;;;5042356;28;20453;-70
2022/02/15 06:43:51;;;;;;;2.70;2.40;;;9.00;99.90;;;;;;5033385;28;20211;-71
2022/02/15 06:46:17;;;;;;;2.10;1.90;;;9.00;99.90;;;;;;5045202;28;20234;-71
2022/02/15 06:48:43;;;;;;;2.90;2.20;;;9.00;99.90;;;;;;5047372;28;20831;-70
2022/02/15 06:51:08;;;;;;;2.90;1.90;;;9.10;99.90;;;;;;5047253;28;20182;-70
2022/02/15 06:53:34;;;;;;;2.23;1.67;;;9.00;99.90;;;;;;5047270;28;20851;-70
2022/02/15 06:56:00;;;;;;;3.90;2.10;;;8.90;99.90;;;;;;5047331;28;20198;-70
2022/02/15 06:58:25;;;;;;;2.30;2.10;;;9.00;99.90;;;;;;5047704;28;20273;-71
2022/02/15 07:00:51;;;;;;;2.30;2.10;;;8.90;99.90;;;;;;5047216;28;20234;-70
2022/02/15 07:03:16;;;;;;;3.67;1.80;;;8.80;99.90;;;;;;5046630;28;20217;-71
2022/02/15 07:05:42;;;;;;;2.50;2.10;;;8.70;99.90;;;;;;5047127;28;20174;-71
2022/02/15 07:08:08;;;;;;;2.93;1.70;;;8.50;99.90;;;;;;5047488;28;20185;-71
2022/02/15 07:10:35;;;;;;;1.80;1.70;;;8.50;99.90;;;;;;5031442;28;20257;-71
2022/02/15 07:13:02;;;;;;;1.80;1.70;;;8.60;99.90;;;;;;5046632;28;20826;-72
2022/02/15 07:15:28;;;;;;;2.63;2.03;;;8.90;99.90;;;;;;5046879;28;20454;-69
2022/02/15 07:17:53;;;;;;;2.00;1.90;;;8.90;99.90;;;;;;5046615;28;20505;-70
2022/02/15 07:20:19;;;;;;;2.90;1.80;;;8.70;99.90;;;;;;5047125;28;20225;-70
2022/02/15 07:22:44;;;;;;;2.50;1.67;;;8.70;99.90;;;;;;5046463;28;20207;-70
2022/02/15 07:25:10;;;;;;;1.63;1.53;;;8.70;99.90;;;;;;5046742;28;20524;-71
2022/02/15 07:27:36;;;;;;;2.37;1.43;;;8.90;99.90;;;;;;5046924;28;20208;-71
2022/02/15 07:30:03;;;;;;;3.00;1.57;;;9.00;99.90;;;;;;5045716;28;20451;-71
2022/02/15 07:32:29;;;;;;;3.60;2.00;;;9.00;99.90;;;;;;5046455;28;20444;-71
2022/02/15 07:34:56;;;;;;;2.30;1.77;;;9.10;99.90;;;;;;5037489;28;20409;-72
2022/02/15 07:37:23;;;;;;;2.97;1.70;;;9.00;99.90;;;;;;5024900;28;20183;-71
2022/02/15 07:39:49;;;;;;;3.00;1.90;;;9.00;99.90;;;;;;5044892;28;20419;-71
2022/02/15 07:42:14;;;;;;;1.97;1.33;;;9.00;99.90;;;;;;5046544;28;20471;-70
2022/02/15 07:44:40;;;;;;;2.57;1.97;;;9.10;99.90;;;;;;5047015;28;20316;-72
2022/02/15 07:47:06;;;;;;;2.20;1.73;;;9.10;99.90;;;;;;5046408;28;20181;-72
2022/02/15 07:49:33;;;;;;;2.13;1.83;;;9.30;99.90;;;;;;5039662;28;20417;-72
2022/02/15 07:51:59;;;;;;;2.63;1.80;;;9.30;99.90;;;;;;5046360;28;20498;-71
2022/02/15 07:54:25;;;;;;;2.10;1.80;;;9.20;99.90;;;;;;5041004;28;20416;-72
2022/02/15 07:56:52;;;;;;;2.47;1.50;;;9.20;99.90;;;;;;5045736;28;20428;-71
2022/02/15 07:59:18;;;;;;;2.00;1.70;;;9.30;99.90;;;;;;5037896;28;20340;-73
2022/02/15 08:01:43;;;;;;;2.87;1.50;;;9.40;99.90;;;;;;5046581;28;20503;-72
2022/02/15 08:04:13;;;;;;;4.30;2.33;;;9.60;99.90;;;;;;5046068;28;20203;-72
2022/02/15 08:06:42;;;;;;;5.33;2.10;;;9.40;99.90;;;;;;5046215;28;20189;-72
2022/02/15 08:09:14;;;;;;;2.73;1.90;;;9.30;99.90;;;;;;5044893;28;20413;-72
2022/02/15 08:11:44;;;;;;;2.03;1.37;;;9.30;99.90;;;;;;5046145;28;20921;-71
2022/02/15 08:14:11;;;;;;;2.47;1.57;;;9.30;99.90;;;;;;5045991;28;20453;-71
2022/02/15 08:16:37;;;;;;;3.57;1.23;;;9.20;99.90;;;;;;5043632;28;20952;-71
2022/02/15 08:19:03;;;;;;;2.20;1.50;;;9.30;99.90;;;;;;5045959;28;20421;-71
2022/02/15 08:21:29;;;;;;;2.50;1.30;;;9.20;99.90;;;;;;5045950;28;20848;-72
2022/02/15 08:23:54;;;;;;;2.53;1.90;;;9.20;99.90;;;;;;5045361;28;20216;-71
2022/02/15 08:26:20;;;;;;;1.77;1.40;;;9.30;99.90;;;;;;5045646;28;20740;-71
2022/02/15 08:28:47;;;;;;;1.70;1.60;;;9.40;99.90;;;;;;5045707;28;20182;-71
2022/02/15 08:31:13;;;;;;;3.67;1.80;;;9.30;99.90;;;;;;5045192;28;20180;-72
2022/02/15 08:33:39;;;;;;;1.90;1.70;;;9.40;99.90;;;;;;5045550;28;20440;-72
2022/02/15 08:36:05;;;;;;;2.30;2.00;;;9.50;99.90;;;;;;5045557;28;20427;-72
2022/02/15 08:38:33;;;;;;;3.07;1.97;;;9.50;99.90;;;;;;5046892;28;20175;-71
2022/02/15 08:41:05;;;;;;;2.70;2.30;;;9.60;99.90;;;;;;5046722;28;20205;-72
2022/02/15 08:43:30;;;;;;;3.93;2.53;;;9.30;99.90;;;;;;5046880;28;20467;-72
2022/02/15 08:45:59;;;;;;;3.73;2.00;;;9.40;99.90;;;;;;5046570;28;20512;-72
2022/02/15 08:48:25;;;;;;;4.03;2.50;;;9.30;99.90;;;;;;5045686;28;20177;-70
2022/02/15 08:50:51;;;;;;;1.90;1.70;;;9.40;99.90;;;;;;5045253;28;21003;-70
2022/02/15 08:53:16;;;;;;;3.57;1.40;;;9.30;99.90;;;;;;5045156;28;20476;-71
2022/02/15 08:55:42;;;;;;;3.70;1.60;;;9.50;99.90;;;;;;5045142;28;20650;-71
2022/02/15 08:58:07;;;;;;;1.97;1.53;;;9.20;99.90;;;;;;5044737;28;20191;-70
2022/02/15 09:00:35;;;;;;;2.03;1.50;;;9.10;99.90;;;;;;5044548;28;20189;-71
2022/02/15 09:03:00;;;;;;;1.77;1.47;;;9.20;99.90;;;;;;5044810;28;20202;-71
2022/02/15 09:05:26;;;;;;;1.87;1.40;;;9.50;99.90;;;;;;5044904;28;20415;-71
2022/02/15 09:07:52;;;;;;;2.60;1.30;;;9.70;99.90;;;;;;5044625;28;20174;-71
2022/02/15 09:10:17;;;;;;;2.13;1.17;;;9.70;99.90;;;;;;5044373;28;20269;-71
2022/02/15 09:12:43;;;;;;;1.97;1.30;;;9.70;99.90;;;;;;5044392;28;20217;-72
2022/02/15 09:15:12;;;;;;;1.63;1.47;;;9.50;99.90;;;;;;5044618;28;20175;-71
2022/02/15 09:17:39;;;;;;;1.90;1.30;;;9.60;99.90;;;;;;5044657;28;20175;-71
2022/02/15 09:20:10;;;;;;;2.70;1.30;;;9.60;99.90;;;;;;5042771;28;20422;-71
2022/02/15 09:22:37;;;;;;;2.30;1.00;;;9.50;99.90;;;;;;5044381;28;20525;-71
2022/02/15 09:25:03;;;;;;;2.23;1.10;;;9.40;99.90;;;;;;5044598;28;20887;-71
2022/02/15 09:27:29;;;;;;;1.40;1.10;;;9.50;99.90;;;;;;5044201;28;20409;-72
2022/02/15 09:29:54;;;;;;;0.90;0.90;;;9.40;99.90;;;;;;5044235;28;20934;-72
2022/02/15 09:32:20;;;;;;;3.57;1.40;;;9.20;99.90;;;;;;5043537;28;20264;-71
2022/02/15 09:34:46;;;;;;;1.37;1.20;;;9.20;99.90;;;;;;5044356;28;20204;-70
2022/02/15 09:37:11;;;;;;;1.97;1.53;;;9.20;99.90;;;;;;5045043;28;20414;-71
2022/02/15 09:39:37;;;;;;;6.67;1.57;;;9.30;99.90;;;;;;5026431;28;20217;-71
2022/02/15 09:42:03;;;;;;;1.60;1.50;;;9.30;99.90;;;;;;5043841;28;20176;-71
2022/02/15 09:44:29;;;;;;;2.63;1.50;;;9.40;99.90;;;;;;5044365;28;20189;-71
2022/02/15 09:46:55;;;;;;;2.50;1.77;;;9.10;99.90;;;;;;5044295;28;20462;-71
2022/02/15 09:52:10;;;;;;;1.77;1.67;;;9.30;99.90;;;;;;5044100;28;20774;-71
2022/02/15 09:54:37;;;;;;;2.33;2.13;;;9.30;99.90;;;;;;5044158;28;20404;-72
2022/02/15 09:57:03;;;;;;;5.27;2.20;;;9.30;99.90;;;;;;5042995;28;20418;-71
2022/02/15 09:59:29;;;;;;;2.43;2.13;;;9.80;99.90;;;;;;5032731;28;20474;-71
2022/02/15 10:01:55;;;;;;;2.63;1.80;;;9.90;99.90;;;;;;5043787;28;20471;-72
2022/02/15 10:04:34;;;;;;;2.50;1.93;;;10.40;99.90;;;;;;5043753;28;20372;-72
2022/02/15 10:07:01;;;;;;;1.87;1.67;;;10.50;99.90;;;;;;5043541;28;20174;-71
2022/02/15 10:09:27;;;;;;;2.30;2.10;;;10.50;99.90;;;;;;5044110;28;21469;-72
2022/02/15 10:12:02;;;;;;;3.70;2.30;;;10.60;99.90;;;;;;5043996;28;20413;-72
2022/02/15 10:14:28;;;;;;;5.17;2.40;;;10.70;99.90;;;;;;5043702;28;20813;-72
2022/02/15 10:16:53;;;;;;;3.00;1.80;;;10.60;99.90;;;;;;5043636;28;21284;-71
2022/02/15 10:19:24;;;;;;;3.20;2.30;;;10.50;99.90;;;;;;5044076;28;20265;-72
2022/02/15 10:21:54;;;;;;;1.40;1.30;;;10.50;99.90;;;;;;5044062;28;20171;-70
2022/02/15 10:24:20;;;;;;;2.90;2.43;;;10.50;99.90;;;;;;5043996;28;20565;-71
2022/02/15 10:27:11;;;;;;;5.30;1.90;;;10.20;99.90;;;;;;5044176;28;21434;-72
2022/02/15 10:29:39;;;;;;;2.23;1.93;;;10.50;99.90;;;;;;5043036;28;20472;-71
2022/02/15 10:32:13;;;;;;;5.00;3.47;;;10.80;99.90;;;;;;5043647;28;20413;-71
2022/02/15 10:34:56;;;;;;;5.30;1.73;;;10.70;99.90;;;;;;5043772;28;20409;-71
2022/02/15 10:37:26;;;;;;;4.70;1.73;;;10.70;99.90;;;;;;5044021;28;20814;-71
2022/02/15 10:40:04;;;;;;;3.07;2.23;;;10.70;99.90;;;;;;5025860;28;20450;-71
2022/02/15 10:42:31;;;;;;;3.93;2.10;;;10.70;99.90;;;;;;5028035;28;20978;-71
2022/02/15 10:45:02;;;;;;;3.60;1.63;;;10.30;99.90;;;;;;5044022;28;20420;-71
2022/02/15 10:47:33;;;;;;;1.80;1.43;;;10.20;99.90;;;;;;5043908;28;20455;-71
2022/02/15 10:50:10;;;;;;;5.10;1.67;;;10.20;99.90;;;;;;5044661;28;20403;-72
2022/02/15 10:52:36;;;;;;;2.80;1.53;;;10.20;99.90;;;;;;5044138;28;20440;-71
2022/02/15 10:55:03;;;;;;;3.20;1.80;;;10.10;99.90;;;;;;5042440;28;20430;-71
2022/02/15 10:57:29;;;;;;;1.90;1.53;;;10.10;99.90;;;;;;5042627;28;20409;-71
2022/02/15 10:59:56;;;;;;;2.60;2.20;;;10.10;99.90;;;;;;5044188;28;20978;-71
2022/02/15 11:02:27;;;;;;;2.20;1.90;;;10.20;99.90;;;;;;5043802;28;20569;-71
2022/02/15 11:04:56;;;;;;;2.80;1.60;;;10.00;99.90;;;;;;5044005;28;20401;-71
2022/02/15 11:07:31;;;;;;;8.37;2.10;;;10.20;99.90;;;;;;5025919;28;20427;-70
2022/02/15 11:10:27;;;;;;;1.77;1.50;;;10.20;99.90;;;;;;5043288;28;20477;-71
2022/02/15 11:12:57;;;;;;;1.77;1.63;;;10.20;99.90;;;;;;5074431;22;20451;-71
2022/02/15 11:15:27;;;;;;;2.40;1.60;;;10.10;99.90;;;;;;5056581;28;20425;-73
2022/02/15 11:17:58;;;;;;;2.10;1.83;;;10.10;99.90;;;;;;5048617;28;20807;-72
2022/02/15 11:20:50;;;;;;;3.13;1.77;;;10.10;99.90;;;;;;5055504;28;20464;-73
2022/02/15 11:23:20;;;;;;;1.90;1.63;;;9.90;99.90;;;;;;5054561;28;20471;-73
2022/02/15 11:25:49;;;;;;;1.40;1.30;;;9.80;99.90;;;;;;5038583;28;20408;-73
2022/02/15 11:28:19;;;;;;;5.00;1.83;;;9.90;99.90;;;;;;5053094;28;20415;-73
2022/02/15 11:30:54;;;;;;;2.53;1.10;;;10.10;99.90;;;;;;5035590;28;20933;-74
2022/02/15 11:33:25;;;;;;;1.60;1.13;;;9.90;99.90;;;;;;5054244;28;20447;-73
2022/02/15 11:36:03;;;;;;;1.40;1.30;;;10.00;99.90;;;;;;5058027;28;20481;-73
2022/02/15 11:38:29;;;;;;;1.30;1.20;;;10.10;99.90;;;;;;5057500;28;20396;-73
2022/02/15 11:41:14;;;;;;;3.20;1.30;;;10.10;99.90;;;;;;5052964;28;20416;-73
2022/02/15 11:43:40;;;;;;;3.60;2.30;;;10.00;99.90;;;;;;5048991;28;20284;-73
2022/02/15 11:46:06;;;;;;;1.67;1.30;;;9.90;99.90;;;;;;5057390;28;20414;-73
2022/02/15 11:48:39;;;;;;;1.73;1.17;;;9.80;99.90;;;;;;5060280;28;20171;-73
2022/02/15 11:51:19;;;;;;;2.33;1.23;;;9.90;99.90;;;;;;5038799;28;20546;-71
2022/02/15 11:53:53;;;;;;;1.30;1.00;;;9.80;99.90;;;;;;5060425;28;20440;-73
2022/02/15 11:56:19;;;;;;;3.00;1.27;;;9.80;99.90;;;;;;5053665;28;20456;-72
2022/02/15 11:58:50;;;;;;;2.37;1.07;;;9.80;99.90;;;;;;5059236;28;20417;-73
2022/02/15 12:01:27;;;;;;;1.33;1.10;;;9.90;99.90;;;;;;5058590;28;20416;-73
2022/02/15 12:03:54;;;;;;;3.00;1.17;;;10.20;99.90;;;;;;5060665;28;20516;-73
2022/02/15 12:06:21;;;;;;;1.33;1.20;;;10.50;99.90;;;;;;5044994;28;20877;-73
2022/02/15 12:08:58;;;;;;;4.40;1.30;;;10.90;99.90;;;;;;5039237;28;20416;-72
2022/02/15 12:11:50;;;;;;;1.67;1.23;;;11.60;99.70;;;;;;5061553;28;20423;-75
2022/02/15 12:14:17;;;;;;;2.97;1.10;;;11.50;99.20;;;;;;5042375;28;20514;-73
2022/02/15 12:16:57;;;;;;;2.43;1.30;;;11.40;99.80;;;;;;5058845;28;20413;-72
2022/02/15 12:19:30;;;;;;;2.77;1.70;;;11.40;99.60;;;;;;5052705;28;20424;-72
2022/02/15 12:22:02;;;;;;;2.40;1.60;;;12.10;99.50;;;;;;5037547;28;20431;-73
2022/02/15 12:24:30;;;;;;;2.17;1.70;;;14.20;97.30;;;;;;5059553;28;20491;-74
2022/02/15 12:26:57;;;;;;;2.27;1.40;;;14.50;95.40;;;;;;5037212;28;20429;-74
2022/02/15 12:29:23;;;;;;;2.33;1.27;;;13.90;95.80;;;;;;5055932;28;20406;-73
2022/02/15 12:31:55;;;;;;;3.53;1.77;;;13.50;96.90;;;;;;5059133;28;20920;-74
2022/02/15 12:34:21;;;;;;;1.50;1.40;;;13.00;96.70;;;;;;5036672;28;20264;-73
2022/02/15 12:36:48;;;;;;;2.70;1.93;;;12.50;97.60;;;;;;5050972;28;20424;-73
2022/02/15 12:39:14;;;;;;;3.13;1.70;;;12.10;98.50;;;;;;5060124;28;20559;-74
2022/02/15 12:41:47;;;;;;;2.40;1.93;;;11.70;99.40;;;;;;5055518;28;20424;-73
2022/02/15 12:44:13;;;;;;;2.93;1.90;;;11.50;99.60;;;;;;5036879;28;20477;-72
2022/02/15 12:46:39;;;;;;;5.50;2.07;;;11.00;99.90;;;;;;5052963;28;20423;-73
2022/02/15 12:49:07;;;;;;;3.97;2.07;;;10.90;99.90;;;;;;5061829;28;20505;-73
2022/02/15 12:51:35;;;;;;;2.90;1.80;;;10.90;99.90;;;;;;5032324;28;20214;-71
2022/02/15 12:54:04;;;;;;;2.10;1.80;;;10.90;99.90;;;;;;5054950;28;20834;-72
2022/02/15 12:56:31;;;;;;;4.10;2.20;;;10.80;99.90;;;;;;5049123;28;20413;-74
2022/02/15 12:58:59;;;;;;;3.30;1.80;;;10.80;99.90;;;;;;5053451;28;20420;-72
2022/02/15 13:01:28;;;;;;;2.10;1.70;;;10.50;99.90;;;;;;5057079;28;20502;-73
2022/02/15 13:03:56;;;;;;;2.80;2.10;;;10.80;99.90;;;;;;5034871;28;20469;-72
2022/02/15 13:06:24;;;;;;;3.77;2.10;;;10.80;99.90;;;;;;5058334;28;20811;-72